createdAt,value
2017-12-08T00:00:25.583Z,0.00
2017-12-08T00:01:25.577Z,0.00
2017-12-08T00:02:25.571Z,0.00
2017-12-08T00:03:25.573Z,0.00
2017-12-08T00:04:25.557Z,0.00
2017-12-08T00:05:25.552Z,0.00
2017-12-08T00:06:25.544Z,0.00
2017-12-08T00:07:25.539Z,0.00
2017-12-08T00:08:25.534Z,0.00
2017-12-08T00:09:25.526Z,0.00
2017-12-08T00:10:25.520Z,0.00
2017-12-08T00:11:25.520Z,0.00
2017-12-08T00:12:25.515Z,0.00
2017-12-08T00:13:25.500Z,0.00
2017-12-08T00:14:25.494Z,0.00
2017-12-08T00:15:25.488Z,0.00
2017-12-08T00:16:25.483Z,0.00
2017-12-08T00:17:25.477Z,0.00
2017-12-08T00:18:25.470Z,0.00
2017-12-08T00:19:25.462Z,0.00
2017-12-08T00:20:25.460Z,0.00
2017-12-08T00:21:25.452Z,0.00
2017-12-08T00:22:25.445Z,0.00
2017-12-08T00:23:25.439Z,0.00
2017-12-08T00:24:25.442Z,0.00
2017-12-08T00:25:25.427Z,0.00
2017-12-08T00:26:25.428Z,0.00
2017-12-08T00:27:25.413Z,0.00
2017-12-08T00:28:25.407Z,0.00
2017-12-08T00:29:25.400Z,0.00
2017-12-08T00:30:25.395Z,0.00
2017-12-08T00:31:25.388Z,0.00
2017-12-08T00:32:25.384Z,0.00
2017-12-08T00:33:25.376Z,0.00
2017-12-08T00:34:25.371Z,0.00
2017-12-08T00:35:25.361Z,0.00
2017-12-08T00:36:25.356Z,0.00
2017-12-08T00:37:25.350Z,0.00
2017-12-08T00:38:25.344Z,0.00
2017-12-08T00:39:25.338Z,0.00
2017-12-08T00:40:25.338Z,0.00
2017-12-08T00:41:25.325Z,0.00
2017-12-08T00:42:25.318Z,0.00
2017-12-08T00:43:25.313Z,0.00
2017-12-08T00:44:25.306Z,0.00
2017-12-08T00:45:25.301Z,0.00
2017-12-08T00:46:25.296Z,0.00
2017-12-08T00:47:25.287Z,0.00
2017-12-08T00:48:25.282Z,0.00
2017-12-08T00:49:25.277Z,0.00
2017-12-08T00:50:25.270Z,0.00
2017-12-08T00:51:25.264Z,0.00
2017-12-08T00:52:25.257Z,0.00
2017-12-08T00:53:25.250Z,0.00
2017-12-08T00:54:25.244Z,0.00
2017-12-08T00:55:25.239Z,0.00
2017-12-08T00:56:25.231Z,0.00
2017-12-08T00:57:25.225Z,0.00
2017-12-08T00:58:25.220Z,0.00
2017-12-08T00:59:25.213Z,0.00
2017-12-08T01:00:25.208Z,0.00
2017-12-08T01:01:25.208Z,0.00
2017-12-08T01:02:25.201Z,0.00
2017-12-08T01:03:25.188Z,0.00
2017-12-08T01:04:25.183Z,0.00
2017-12-08T01:05:25.176Z,0.00
2017-12-08T01:06:25.170Z,0.00
2017-12-08T01:07:25.162Z,0.00
2017-12-08T01:08:25.158Z,0.00
2017-12-08T01:09:25.190Z,0.00
2017-12-08T01:10:25.170Z,0.00
2017-12-08T01:11:25.140Z,0.00
2017-12-08T01:12:25.133Z,0.00
2017-12-08T01:13:25.139Z,0.00
2017-12-08T01:14:25.121Z,0.00
2017-12-08T01:15:25.117Z,0.00
2017-12-08T01:16:25.109Z,0.00
2017-12-08T01:17:25.105Z,0.00
2017-12-08T01:18:25.096Z,0.00
2017-12-08T01:19:25.089Z,0.00
2017-12-08T01:20:25.083Z,0.00
2017-12-08T01:21:25.076Z,0.00
2017-12-08T01:22:25.072Z,0.00
2017-12-08T01:23:25.065Z,0.00
2017-12-08T01:24:25.058Z,0.00
2017-12-08T01:25:25.052Z,0.00
2017-12-08T01:26:25.046Z,0.00
2017-12-08T01:27:25.039Z,0.00
2017-12-08T01:28:25.034Z,0.00
2017-12-08T01:29:25.030Z,0.00
2017-12-08T01:30:25.021Z,0.00
2017-12-08T01:31:25.015Z,0.00
2017-12-08T01:32:25.009Z,0.00
2017-12-08T01:33:25.003Z,0.00
2017-12-08T01:34:24.996Z,0.00
2017-12-08T01:35:24.988Z,0.00
2017-12-08T01:36:24.984Z,0.00
2017-12-08T01:37:24.977Z,0.00
2017-12-08T01:38:24.972Z,0.00
2017-12-08T01:39:24.965Z,0.00
2017-12-08T01:40:24.959Z,0.00
2017-12-08T01:41:24.954Z,0.00
2017-12-08T01:42:24.956Z,0.00
2017-12-08T01:43:24.941Z,0.00
2017-12-08T01:44:24.934Z,0.00
2017-12-08T01:45:24.928Z,0.00
2017-12-08T01:46:24.922Z,0.00
2017-12-08T01:47:24.915Z,0.00
2017-12-08T01:48:24.910Z,0.00
2017-12-08T01:49:24.905Z,0.00
2017-12-08T01:50:24.898Z,0.00
2017-12-08T01:51:24.889Z,0.00
2017-12-08T01:52:24.884Z,0.00
2017-12-08T01:53:24.878Z,0.00
2017-12-08T01:54:24.872Z,0.00
2017-12-08T01:55:24.864Z,0.00
2017-12-08T01:56:24.859Z,0.00
2017-12-08T01:57:24.853Z,0.00
2017-12-08T01:58:24.847Z,0.00
2017-12-08T01:59:24.842Z,0.00
2017-12-08T02:00:24.835Z,0.00
2017-12-08T02:01:24.829Z,0.00
2017-12-08T02:02:24.824Z,0.00
2017-12-08T02:03:24.816Z,0.00
2017-12-08T02:04:24.812Z,0.00
2017-12-08T02:05:24.806Z,0.00
2017-12-08T02:06:24.803Z,0.00
2017-12-08T02:07:24.792Z,0.00
2017-12-08T02:08:24.785Z,0.00
2017-12-08T02:09:24.780Z,0.00
2017-12-08T02:10:24.774Z,0.00
2017-12-08T02:11:24.766Z,0.00
2017-12-08T02:12:24.761Z,0.00
2017-12-08T02:13:24.755Z,0.00
2017-12-08T02:14:24.749Z,0.00
2017-12-08T02:15:24.741Z,0.00
2017-12-08T02:16:24.736Z,0.00
2017-12-08T02:17:24.730Z,0.00
2017-12-08T02:18:24.724Z,0.00
2017-12-08T02:19:24.717Z,0.00
2017-12-08T02:20:24.712Z,0.00
2017-12-08T02:21:24.705Z,0.00
2017-12-08T02:22:24.698Z,0.00
2017-12-08T02:23:24.692Z,0.00
2017-12-08T02:24:24.687Z,0.00
2017-12-08T02:25:24.680Z,0.00
2017-12-08T02:26:24.674Z,0.00
2017-12-08T02:27:24.668Z,0.00
2017-12-08T02:28:24.660Z,0.00
2017-12-08T02:29:24.656Z,0.00
2017-12-08T02:30:24.649Z,0.00
2017-12-08T02:31:24.643Z,0.00
2017-12-08T02:32:24.637Z,0.00
2017-12-08T02:33:24.631Z,0.00
2017-12-08T02:34:24.625Z,0.00
2017-12-08T02:35:24.617Z,0.00
2017-12-08T02:36:24.610Z,0.00
2017-12-08T02:37:24.606Z,0.00
2017-12-08T02:38:24.600Z,0.00
2017-12-08T02:39:24.594Z,0.00
2017-12-08T02:40:24.587Z,0.00
2017-12-08T02:41:24.582Z,0.00
2017-12-08T02:42:24.575Z,0.00
2017-12-08T02:43:24.567Z,0.00
2017-12-08T02:44:24.563Z,0.00
2017-12-08T02:45:24.556Z,0.00
2017-12-08T02:46:24.551Z,0.00
2017-12-08T02:47:24.544Z,0.00
2017-12-08T02:48:24.538Z,0.00
2017-12-08T02:49:24.530Z,0.00
2017-12-08T02:50:24.526Z,0.00
2017-12-08T02:51:24.518Z,0.00
2017-12-08T02:52:24.513Z,0.00
2017-12-08T02:53:24.507Z,0.00
2017-12-08T02:54:24.500Z,0.00
2017-12-08T02:55:24.493Z,0.00
2017-12-08T02:56:24.488Z,0.00
2017-12-08T02:57:24.481Z,0.00
2017-12-08T02:58:24.475Z,0.00
2017-12-08T02:59:24.469Z,0.00
2017-12-08T03:00:24.464Z,0.00
2017-12-08T03:01:24.457Z,0.00
2017-12-08T03:02:24.451Z,0.00
2017-12-08T03:03:24.444Z,0.00
2017-12-08T03:04:24.438Z,0.00
2017-12-08T03:05:24.432Z,0.00
2017-12-08T03:06:24.427Z,0.00
2017-12-08T03:07:24.421Z,0.00
2017-12-08T03:08:24.413Z,0.00
2017-12-08T03:09:24.407Z,0.00
2017-12-08T03:10:24.401Z,0.00
2017-12-08T03:11:24.394Z,0.00
2017-12-08T03:12:24.389Z,0.00
2017-12-08T03:13:24.382Z,0.00
2017-12-08T03:14:24.377Z,0.00
2017-12-08T03:15:24.368Z,0.00
2017-12-08T03:16:24.363Z,0.00
2017-12-08T03:17:24.359Z,0.00
2017-12-08T03:18:24.353Z,0.00
2017-12-08T03:19:24.344Z,0.00
2017-12-08T03:20:24.341Z,0.00
2017-12-08T03:21:24.335Z,0.00
2017-12-08T03:22:24.326Z,0.00
2017-12-08T03:23:24.319Z,0.00
2017-12-08T03:24:24.314Z,0.00
2017-12-08T03:25:24.308Z,0.00
2017-12-08T03:26:24.302Z,0.00
2017-12-08T03:27:24.296Z,0.00
2017-12-08T03:28:24.292Z,0.00
2017-12-08T03:29:24.282Z,0.00
2017-12-08T03:30:24.286Z,0.00
2017-12-08T03:31:24.273Z,0.00
2017-12-08T03:32:24.264Z,0.00
2017-12-08T03:33:24.257Z,0.00
2017-12-08T03:34:24.252Z,0.00
2017-12-08T03:35:24.245Z,0.00
2017-12-08T03:36:24.239Z,0.00
2017-12-08T03:37:24.235Z,0.00
2017-12-08T03:38:24.248Z,0.00
2017-12-08T03:39:24.220Z,0.00
2017-12-08T03:40:24.215Z,0.00
2017-12-08T03:41:24.208Z,0.00
2017-12-08T03:42:24.203Z,0.00
2017-12-08T03:43:24.195Z,0.00
2017-12-08T03:44:24.190Z,0.00
2017-12-08T03:45:24.187Z,0.00
2017-12-08T03:46:24.177Z,0.00
2017-12-08T03:47:24.171Z,0.00
2017-12-08T03:48:24.168Z,0.00
2017-12-08T03:49:24.160Z,0.00
2017-12-08T03:50:24.154Z,0.00
2017-12-08T03:51:24.146Z,0.00
2017-12-08T03:52:24.140Z,0.00
2017-12-08T03:53:24.133Z,0.00
2017-12-08T03:54:24.128Z,0.00
2017-12-08T03:55:24.122Z,0.00
2017-12-08T03:56:24.115Z,0.00
2017-12-08T03:57:24.109Z,0.00
2017-12-08T03:58:24.103Z,0.00
2017-12-08T03:59:24.098Z,0.00
2017-12-08T04:00:24.090Z,0.00
2017-12-08T04:01:24.085Z,0.00
2017-12-08T04:02:24.079Z,0.00
2017-12-08T04:03:24.071Z,0.00
2017-12-08T04:04:24.071Z,0.00
2017-12-08T04:05:24.061Z,0.00
2017-12-08T04:06:24.054Z,0.00
2017-12-08T04:07:24.055Z,0.00
2017-12-08T04:08:24.041Z,0.00
2017-12-08T04:09:24.034Z,0.00
2017-12-08T04:10:24.029Z,0.00
2017-12-08T04:11:24.022Z,0.00
2017-12-08T04:12:24.017Z,0.00
2017-12-08T04:13:24.008Z,0.00
2017-12-08T04:14:24.006Z,0.00
2017-12-08T04:15:23.998Z,0.00
2017-12-08T04:16:23.991Z,0.00
2017-12-08T04:17:23.986Z,0.00
2017-12-08T04:18:23.981Z,0.00
2017-12-08T04:19:23.972Z,0.00
2017-12-08T04:20:23.968Z,0.00
2017-12-08T04:21:23.961Z,0.00
2017-12-08T04:22:23.955Z,0.00
2017-12-08T04:23:23.952Z,0.00
2017-12-08T04:24:23.942Z,0.00
2017-12-08T04:25:23.937Z,0.00
2017-12-08T04:26:23.931Z,0.00
2017-12-08T04:27:23.926Z,0.00
2017-12-08T04:28:23.918Z,0.00
2017-12-08T04:29:23.918Z,0.00
2017-12-08T04:30:23.906Z,0.00
2017-12-08T04:31:23.900Z,0.00
2017-12-08T04:32:23.894Z,0.00
2017-12-08T04:33:23.890Z,0.00
2017-12-08T04:34:23.883Z,0.00
2017-12-08T04:35:23.875Z,0.00
2017-12-08T04:36:23.871Z,0.00
2017-12-08T04:37:23.863Z,0.00
2017-12-08T04:38:23.857Z,0.00
2017-12-08T04:39:23.852Z,0.00
2017-12-08T04:40:23.846Z,0.00
2017-12-08T04:41:23.839Z,0.00
2017-12-08T04:42:23.834Z,0.00
2017-12-08T04:43:23.828Z,0.00
2017-12-08T04:44:23.821Z,0.00
2017-12-08T04:45:23.855Z,0.00
2017-12-08T04:46:23.811Z,0.00
2017-12-08T04:47:23.809Z,0.00
2017-12-08T04:48:23.798Z,0.00
2017-12-08T04:49:23.800Z,0.00
2017-12-08T04:50:23.787Z,0.00
2017-12-08T04:51:23.783Z,0.00
2017-12-08T04:52:23.778Z,0.00
2017-12-08T04:53:23.769Z,0.00
2017-12-08T04:54:23.765Z,0.00
2017-12-08T04:55:23.757Z,0.00
2017-12-08T04:56:23.747Z,0.00
2017-12-08T04:57:23.744Z,0.00
2017-12-08T04:58:23.738Z,0.00
2017-12-08T04:59:23.730Z,0.00
2017-12-08T05:00:23.728Z,0.00
2017-12-08T05:01:23.720Z,0.00
2017-12-08T05:02:23.711Z,0.00
2017-12-08T05:03:23.706Z,0.00
2017-12-08T05:04:23.698Z,0.00
2017-12-08T05:05:23.694Z,0.00
2017-12-08T05:06:23.686Z,0.00
2017-12-08T05:07:23.679Z,0.00
2017-12-08T05:08:23.671Z,0.00
2017-12-08T05:09:23.665Z,0.00
2017-12-08T05:10:23.658Z,0.00
2017-12-08T05:11:23.652Z,0.00
2017-12-08T05:12:23.645Z,0.00
2017-12-08T05:13:23.637Z,0.00
2017-12-08T05:14:23.630Z,0.00
2017-12-08T05:15:23.623Z,0.00
2017-12-08T05:16:23.616Z,0.00
2017-12-08T05:17:23.608Z,0.00
2017-12-08T05:18:23.601Z,0.00
2017-12-08T05:19:23.594Z,0.00
2017-12-08T05:20:23.587Z,0.00
2017-12-08T05:21:23.578Z,0.00
2017-12-08T05:22:23.573Z,0.00
2017-12-08T05:23:23.566Z,0.00
2017-12-08T05:24:23.559Z,0.00
2017-12-08T05:25:23.552Z,0.00
2017-12-08T05:26:23.544Z,0.00
2017-12-08T05:27:23.538Z,0.00
2017-12-08T05:28:23.529Z,0.00
2017-12-08T05:29:23.520Z,0.00
2017-12-08T05:30:23.516Z,0.00
2017-12-08T05:31:23.509Z,0.00
2017-12-08T05:32:23.499Z,0.00
2017-12-08T05:33:23.494Z,0.00
2017-12-08T05:34:23.485Z,0.00
2017-12-08T05:35:23.477Z,0.00
2017-12-08T05:36:23.471Z,0.00
2017-12-08T05:37:23.464Z,0.00
2017-12-08T05:38:23.457Z,0.00
2017-12-08T05:39:23.500Z,0.00
2017-12-08T05:40:23.440Z,0.00
2017-12-08T05:41:23.439Z,0.00
2017-12-08T05:42:23.428Z,0.00
2017-12-08T05:43:23.420Z,0.00
2017-12-08T05:44:23.413Z,0.00
2017-12-08T05:45:23.405Z,0.00
2017-12-08T05:46:23.398Z,0.00
2017-12-08T05:47:23.389Z,0.00
2017-12-08T05:48:23.382Z,0.00
2017-12-08T05:49:23.376Z,0.00
2017-12-08T05:50:23.369Z,0.00
2017-12-08T05:51:23.361Z,0.00
2017-12-08T05:52:23.354Z,0.00
2017-12-08T05:53:23.346Z,0.00
2017-12-08T05:54:23.340Z,0.00
2017-12-08T05:55:23.331Z,0.00
2017-12-08T05:56:23.324Z,0.00
2017-12-08T05:57:23.317Z,0.00
2017-12-08T05:58:23.310Z,0.00
2017-12-08T05:59:23.317Z,0.00
2017-12-08T06:00:23.295Z,0.00
2017-12-08T06:01:23.291Z,0.00
2017-12-08T06:02:23.280Z,0.00
2017-12-08T06:03:23.273Z,0.00
2017-12-08T06:04:23.264Z,0.00
2017-12-08T06:05:23.259Z,0.00
2017-12-08T06:06:23.251Z,0.00
2017-12-08T06:07:23.243Z,0.00
2017-12-08T06:08:23.236Z,0.00
2017-12-08T06:09:23.229Z,0.00
2017-12-08T06:10:23.223Z,0.00
2017-12-08T06:11:23.215Z,0.00
2017-12-08T06:12:23.240Z,0.00
2017-12-08T06:13:23.227Z,0.00
2017-12-08T06:14:23.221Z,0.00
2017-12-08T06:15:23.182Z,0.00
2017-12-08T06:16:23.194Z,0.00
2017-12-08T06:17:23.169Z,0.00
2017-12-08T06:18:23.163Z,0.00
2017-12-08T06:19:23.153Z,0.00
2017-12-08T06:20:23.150Z,0.00
2017-12-08T06:21:23.140Z,0.00
2017-12-08T06:22:23.132Z,0.00
2017-12-08T06:23:23.126Z,0.00
2017-12-08T06:24:23.116Z,0.00
2017-12-08T06:25:23.112Z,0.00
2017-12-08T06:26:23.105Z,0.00
2017-12-08T06:27:23.095Z,0.00
2017-12-08T06:28:23.087Z,0.00
2017-12-08T06:29:23.081Z,0.00
2017-12-08T06:30:23.072Z,0.00
2017-12-08T06:31:23.067Z,0.00
2017-12-08T06:32:23.059Z,0.00
2017-12-08T06:33:23.053Z,0.00
2017-12-08T06:34:23.043Z,0.00
2017-12-08T06:35:23.035Z,0.00
2017-12-08T06:36:23.030Z,0.00
2017-12-08T06:37:23.020Z,0.00
2017-12-08T06:38:23.014Z,0.00
2017-12-08T06:39:23.005Z,0.00
2017-12-08T06:40:22.997Z,0.00
2017-12-08T06:41:22.990Z,0.00
2017-12-08T06:42:22.984Z,0.00
2017-12-08T06:43:22.975Z,4.00
2017-12-08T06:44:22.968Z,4.00
2017-12-08T06:45:22.961Z,4.00
2017-12-08T06:46:22.954Z,0.00
2017-12-08T06:47:22.946Z,4.00
2017-12-08T06:48:22.940Z,4.00
2017-12-08T06:49:22.931Z,4.00
2017-12-08T06:50:22.925Z,8.00
2017-12-08T06:51:22.915Z,8.00
2017-12-08T06:52:22.908Z,8.00
2017-12-08T06:53:22.905Z,8.00
2017-12-08T06:54:22.892Z,12.00
2017-12-08T06:55:22.889Z,12.00
2017-12-08T06:56:22.878Z,12.00
2017-12-08T06:57:22.872Z,16.00
2017-12-08T06:58:22.865Z,16.00
2017-12-08T06:59:22.857Z,20.00
2017-12-08T07:00:22.848Z,24.00
2017-12-08T07:01:22.841Z,24.00
2017-12-08T07:02:22.835Z,28.00
2017-12-08T07:03:22.826Z,28.00
2017-12-08T07:04:22.819Z,36.00
2017-12-08T07:05:22.812Z,40.00
2017-12-08T07:06:22.804Z,40.00
2017-12-08T07:07:22.797Z,44.00
2017-12-08T07:08:22.788Z,48.00
2017-12-08T07:09:22.781Z,48.00
2017-12-08T07:10:22.773Z,52.00
2017-12-08T07:11:22.764Z,56.00
2017-12-08T07:12:22.758Z,56.00
2017-12-08T07:13:22.752Z,60.00
2017-12-08T07:14:22.744Z,64.00
2017-12-08T07:15:22.735Z,72.00
2017-12-08T07:16:22.728Z,80.00
2017-12-08T07:17:22.722Z,84.00
2017-12-08T07:18:22.714Z,88.00
2017-12-08T07:19:22.707Z,92.00
2017-12-08T07:20:22.701Z,96.00
2017-12-08T07:21:22.692Z,104.00
2017-12-08T07:22:22.682Z,112.00
2017-12-08T07:23:22.676Z,116.00
2017-12-08T07:24:22.668Z,124.00
2017-12-08T07:25:22.663Z,128.00
2017-12-08T07:26:22.655Z,136.00
2017-12-08T07:27:22.645Z,144.00
2017-12-08T07:28:22.639Z,148.00
2017-12-08T07:29:22.633Z,156.00
2017-12-08T07:30:22.625Z,168.00
2017-12-08T07:31:22.617Z,172.00
2017-12-08T07:32:22.609Z,184.00
2017-12-08T07:33:22.600Z,196.00
2017-12-08T07:34:22.594Z,204.00
2017-12-08T07:35:22.585Z,212.00
2017-12-08T07:36:22.578Z,224.00
2017-12-08T07:37:22.572Z,228.00
2017-12-08T07:38:22.563Z,244.00
2017-12-08T07:39:22.556Z,256.00
2017-12-08T07:40:22.549Z,268.00
2017-12-08T07:41:22.540Z,284.00
2017-12-08T07:42:22.535Z,292.00
2017-12-08T07:43:22.528Z,308.00
2017-12-08T07:44:22.518Z,328.00
2017-12-08T07:45:22.512Z,340.00
2017-12-08T07:46:22.504Z,352.00
2017-12-08T07:47:22.496Z,360.00
2017-12-08T07:48:22.488Z,404.00
2017-12-08T07:49:22.482Z,452.00
2017-12-08T07:50:22.474Z,452.00
2017-12-08T07:51:22.466Z,476.00
2017-12-08T07:52:22.458Z,524.00
2017-12-08T07:53:22.451Z,560.00
2017-12-08T07:54:22.446Z,576.00
2017-12-08T07:55:22.434Z,596.00
2017-12-08T07:56:22.428Z,676.00
2017-12-08T07:57:22.422Z,752.00
2017-12-08T07:58:22.415Z,756.00
2017-12-08T07:59:22.408Z,576.00
2017-12-08T08:00:22.400Z,792.00
2017-12-08T08:01:22.393Z,824.00
2017-12-08T08:02:22.386Z,824.00
2017-12-08T08:03:22.376Z,920.00
2017-12-08T08:04:22.369Z,1108.00
2017-12-08T08:05:22.363Z,744.00
2017-12-08T08:06:22.355Z,1616.00
2017-12-08T08:07:22.346Z,1284.00
2017-12-08T08:08:22.339Z,1900.00
2017-12-08T08:09:22.333Z,1716.00
2017-12-08T08:10:22.327Z,2088.00
2017-12-08T08:11:22.318Z,1540.00
2017-12-08T08:12:22.312Z,2160.00
2017-12-08T08:13:22.303Z,2312.00
2017-12-08T08:14:22.297Z,1032.00
2017-12-08T08:15:22.295Z,2280.00
2017-12-08T08:16:22.282Z,2356.00
2017-12-08T08:17:22.277Z,2200.00
2017-12-08T08:18:22.268Z,2308.00
2017-12-08T08:19:22.261Z,1996.00
2017-12-08T08:20:22.253Z,2692.00
2017-12-08T08:21:22.277Z,996.00
2017-12-08T08:22:22.239Z,1436.00
2017-12-08T08:23:22.232Z,3092.00
2017-12-08T08:24:22.226Z,1796.00
2017-12-08T08:25:22.218Z,1612.00
2017-12-08T08:26:22.211Z,3444.00
2017-12-08T08:27:22.202Z,3536.00
2017-12-08T08:28:22.199Z,3560.00
2017-12-08T08:29:22.195Z,3584.00
2017-12-08T08:30:22.183Z,3728.00
2017-12-08T08:31:22.176Z,3812.00
2017-12-08T08:32:22.168Z,3940.00
2017-12-08T08:33:22.161Z,3616.00
2017-12-08T08:34:22.156Z,3296.00
2017-12-08T08:35:22.150Z,2928.00
2017-12-08T08:36:22.142Z,1800.00
2017-12-08T08:37:22.139Z,1352.00
2017-12-08T08:38:22.128Z,1460.00
2017-12-08T08:39:22.149Z,2668.00
2017-12-08T08:40:22.116Z,4172.00
2017-12-08T08:41:22.108Z,2936.00
2017-12-08T08:42:22.103Z,4988.00
2017-12-08T08:43:22.096Z,5776.00
2017-12-08T08:44:22.089Z,5516.00
2017-12-08T08:45:22.116Z,6416.00
2017-12-08T08:46:22.080Z,6316.00
2017-12-08T08:47:22.072Z,6516.00
2017-12-08T08:48:22.062Z,6320.00
2017-12-08T08:49:22.059Z,5604.00
2017-12-08T08:50:22.055Z,6072.00
2017-12-08T08:51:22.047Z,6380.00
2017-12-08T08:52:22.042Z,6820.00
2017-12-08T08:53:22.036Z,7328.00
2017-12-08T08:54:22.032Z,7748.00
2017-12-08T08:55:22.027Z,6936.00
2017-12-08T08:56:22.021Z,9336.00
2017-12-08T08:57:22.017Z,12168.00
2017-12-08T08:58:22.012Z,3996.00
2017-12-08T08:59:22.008Z,11260.00
2017-12-08T09:00:22.003Z,28672.00
2017-12-08T09:01:22.002Z,18176.00
2017-12-08T09:02:21.995Z,15920.00
2017-12-08T09:03:22.022Z,33728.00
2017-12-08T09:04:22.008Z,16864.00
2017-12-08T09:05:21.982Z,37760.00
2017-12-08T09:06:21.977Z,37952.00
2017-12-08T09:07:21.972Z,33952.00
2017-12-08T09:08:21.970Z,37888.00
2017-12-08T09:09:21.967Z,41696.00
2017-12-08T09:10:21.967Z,44416.00
2017-12-08T09:11:21.958Z,42432.00
2017-12-08T09:12:21.955Z,44416.00
2017-12-08T09:13:21.953Z,47008.00
2017-12-08T09:14:21.956Z,50912.00
2017-12-08T09:15:21.946Z,49920.00
2017-12-08T09:16:21.943Z,42304.00
2017-12-08T09:17:21.944Z,41952.00
2017-12-08T09:18:21.941Z,43776.00
2017-12-08T09:19:21.937Z,43488.00
2017-12-08T09:20:21.934Z,45504.00
2017-12-08T09:21:21.934Z,46560.00
2017-12-08T09:22:21.931Z,6152.00
2017-12-08T09:23:21.931Z,42048.00
2017-12-08T09:24:21.931Z,40384.00
2017-12-08T09:25:21.928Z,41376.00
2017-12-08T09:26:21.926Z,39264.00
2017-12-08T09:27:21.924Z,40640.00
2017-12-08T09:28:21.924Z,43392.00
2017-12-08T09:29:21.924Z,45408.00
2017-12-08T09:30:21.921Z,49344.00
2017-12-08T09:31:21.920Z,53248.00
2017-12-08T09:32:21.921Z,47072.00
2017-12-08T09:33:21.918Z,52480.00
2017-12-08T09:34:21.921Z,31072.00
2017-12-08T09:35:21.918Z,46720.00
2017-12-08T09:36:21.919Z,47136.00
2017-12-08T09:37:21.920Z,51168.00
2017-12-08T09:38:21.921Z,21280.00
2017-12-08T09:39:21.921Z,2548.00
2017-12-08T09:40:21.919Z,51520.00
2017-12-08T09:41:21.919Z,54880.00
2017-12-08T09:42:21.918Z,54112.00
2017-12-08T09:43:21.918Z,50048.00
2017-12-08T09:44:21.918Z,41216.00
2017-12-08T09:45:21.920Z,35616.00
2017-12-08T09:46:21.920Z,39936.00
2017-12-08T09:47:21.921Z,36608.00
2017-12-08T09:48:21.923Z,19136.00
2017-12-08T09:49:21.920Z,31840.00
2017-12-08T09:50:21.921Z,19072.00
2017-12-08T09:51:21.920Z,14664.00
2017-12-08T09:52:21.921Z,22208.00
2017-12-08T09:53:21.920Z,17600.00
2017-12-08T09:54:21.924Z,29216.00
2017-12-08T09:55:21.920Z,9760.00
2017-12-08T09:56:21.922Z,5328.00
2017-12-08T09:57:21.919Z,19264.00
2017-12-08T09:58:21.916Z,8384.00
2017-12-08T09:59:21.918Z,4012.00
2017-12-08T10:00:21.914Z,18656.00
2017-12-08T10:01:21.914Z,21536.00
2017-12-08T10:02:21.913Z,10996.00
2017-12-08T10:03:21.909Z,10024.00
2017-12-08T10:04:21.910Z,14192.00
2017-12-08T10:05:21.907Z,5940.00
2017-12-08T10:06:21.905Z,14644.00
2017-12-08T10:07:21.904Z,5524.00
2017-12-08T10:08:21.900Z,2688.00
2017-12-08T10:09:21.928Z,3352.00
2017-12-08T10:10:21.895Z,2804.00
2017-12-08T10:11:21.893Z,2484.00
2017-12-08T10:12:21.894Z,2744.00
2017-12-08T10:13:21.889Z,1716.00
2017-12-08T10:14:21.886Z,2180.00
2017-12-08T10:15:21.882Z,1736.00
2017-12-08T10:16:21.878Z,2792.00
2017-12-08T10:17:21.875Z,1932.00
2017-12-08T10:18:21.872Z,1504.00
2017-12-08T10:19:21.868Z,1268.00
2017-12-08T10:20:21.864Z,1036.00
2017-12-08T10:21:21.862Z,816.00
2017-12-08T10:22:21.856Z,712.00
2017-12-08T10:23:21.853Z,2484.00
2017-12-08T10:24:21.848Z,1948.00
2017-12-08T10:25:21.844Z,1288.00
2017-12-08T10:26:21.841Z,1576.00
2017-12-08T10:27:21.835Z,1996.00
2017-12-08T10:28:21.830Z,1628.00
2017-12-08T10:29:21.826Z,1288.00
2017-12-08T10:30:21.821Z,1044.00
2017-12-08T10:31:21.820Z,1072.00
2017-12-08T10:32:21.811Z,1396.00
2017-12-08T10:33:21.808Z,1060.00
2017-12-08T10:34:21.802Z,1280.00
2017-12-08T10:35:21.833Z,980.00
2017-12-08T10:36:21.791Z,860.00
2017-12-08T10:37:21.786Z,800.00
2017-12-08T10:38:21.791Z,732.00
2017-12-08T10:39:21.776Z,684.00
2017-12-08T10:40:21.770Z,640.00
2017-12-08T10:41:21.765Z,624.00
2017-12-08T10:42:21.761Z,596.00
2017-12-08T10:43:21.752Z,564.00
2017-12-08T10:44:21.751Z,556.00
2017-12-08T10:45:21.742Z,580.00
2017-12-08T10:46:21.737Z,604.00
2017-12-08T10:47:21.728Z,616.00
2017-12-08T10:48:21.725Z,644.00
2017-12-08T10:49:21.719Z,640.00
2017-12-08T10:50:21.771Z,612.00
2017-12-08T10:51:21.705Z,576.00
2017-12-08T10:52:21.702Z,524.00
2017-12-08T10:53:21.695Z,480.00
2017-12-08T10:54:21.689Z,436.00
2017-12-08T10:55:21.682Z,400.00
2017-12-08T10:56:21.677Z,364.00
2017-12-08T10:57:21.671Z,332.00
2017-12-08T10:58:21.665Z,304.00
2017-12-08T10:59:21.659Z,284.00
2017-12-08T11:00:21.651Z,264.00
2017-12-08T11:01:21.646Z,252.00
2017-12-08T11:02:21.644Z,236.00
2017-12-08T11:03:21.632Z,220.00
2017-12-08T11:04:21.627Z,208.00
2017-12-08T11:05:21.620Z,196.00
2017-12-08T11:06:21.615Z,192.00
2017-12-08T11:07:21.607Z,184.00
2017-12-08T11:08:21.603Z,180.00
2017-12-08T11:09:21.595Z,172.00
2017-12-08T11:10:21.588Z,156.00
2017-12-08T11:11:21.581Z,148.00
2017-12-08T11:12:21.575Z,148.00
2017-12-08T11:13:21.567Z,148.00
2017-12-08T11:14:21.561Z,144.00
2017-12-08T11:15:21.555Z,144.00
2017-12-08T11:16:21.548Z,144.00
2017-12-08T11:17:21.542Z,144.00
2017-12-08T11:18:21.536Z,144.00
2017-12-08T11:19:21.528Z,144.00
2017-12-08T11:20:21.521Z,156.00
2017-12-08T11:21:21.558Z,160.00
2017-12-08T11:22:21.510Z,160.00
2017-12-08T11:23:21.501Z,156.00
2017-12-08T11:24:21.495Z,156.00
2017-12-08T11:25:21.487Z,156.00
2017-12-08T11:26:21.481Z,160.00
2017-12-08T11:27:21.475Z,168.00
2017-12-08T11:28:21.467Z,172.00
2017-12-08T11:29:21.461Z,184.00
2017-12-08T11:30:21.456Z,188.00
2017-12-08T11:31:21.447Z,188.00
2017-12-08T11:32:21.439Z,188.00
2017-12-08T11:33:21.434Z,196.00
2017-12-08T11:34:21.425Z,204.00
2017-12-08T11:35:21.419Z,204.00
2017-12-08T11:36:21.413Z,212.00
2017-12-08T11:37:21.405Z,220.00
2017-12-08T11:38:21.422Z,232.00
2017-12-08T11:39:21.393Z,240.00
2017-12-08T11:40:21.385Z,248.00
2017-12-08T11:41:21.379Z,244.00
2017-12-08T11:42:21.373Z,240.00
2017-12-08T11:43:21.364Z,248.00
2017-12-08T11:44:21.355Z,248.00
2017-12-08T11:45:21.350Z,248.00
2017-12-08T11:46:21.343Z,232.00
2017-12-08T11:47:21.335Z,220.00
2017-12-08T11:48:21.330Z,220.00
2017-12-08T11:49:21.322Z,228.00
2017-12-08T11:50:21.316Z,216.00
2017-12-08T11:51:21.308Z,208.00
2017-12-08T11:52:21.301Z,192.00
2017-12-08T11:53:21.294Z,180.00
2017-12-08T11:54:21.288Z,188.00
2017-12-08T11:55:21.279Z,180.00
2017-12-08T11:56:21.274Z,168.00
2017-12-08T11:57:21.266Z,176.00
2017-12-08T11:58:21.260Z,168.00
2017-12-08T11:59:21.251Z,160.00
2017-12-08T12:00:21.247Z,156.00
2017-12-08T12:01:21.239Z,164.00
2017-12-08T12:02:21.233Z,148.00
2017-12-08T12:03:21.226Z,144.00
2017-12-08T12:04:21.216Z,132.00
2017-12-08T12:05:21.210Z,124.00
2017-12-08T12:06:21.204Z,104.00
2017-12-08T12:07:21.195Z,104.00
2017-12-08T12:08:21.188Z,116.00
2017-12-08T12:09:21.181Z,116.00
2017-12-08T12:10:21.174Z,120.00
2017-12-08T12:11:21.167Z,128.00
2017-12-08T12:12:21.159Z,132.00
2017-12-08T12:13:21.153Z,136.00
2017-12-08T12:14:21.146Z,132.00
2017-12-08T12:15:21.195Z,136.00
2017-12-08T12:16:21.131Z,136.00
2017-12-08T12:17:21.123Z,136.00
2017-12-08T12:18:21.118Z,144.00
2017-12-08T12:19:21.115Z,148.00
2017-12-08T12:20:21.105Z,156.00
2017-12-08T12:21:21.097Z,156.00
2017-12-08T12:22:21.089Z,148.00
2017-12-08T12:23:21.082Z,136.00
2017-12-08T12:24:21.075Z,120.00
2017-12-08T12:25:21.068Z,108.00
2017-12-08T12:26:21.061Z,104.00
2017-12-08T12:27:21.053Z,104.00
2017-12-08T12:28:21.045Z,108.00
2017-12-08T12:29:21.039Z,132.00
2017-12-08T12:30:21.031Z,156.00
2017-12-08T12:31:21.025Z,180.00
2017-12-08T12:32:21.018Z,196.00
2017-12-08T12:33:21.009Z,208.00
2017-12-08T12:34:21.003Z,216.00
2017-12-08T12:35:21.003Z,220.00
2017-12-08T12:36:20.988Z,228.00
2017-12-08T12:37:20.981Z,236.00
2017-12-08T12:38:20.975Z,252.00
2017-12-08T12:39:20.969Z,272.00
2017-12-08T12:40:20.962Z,296.00
2017-12-08T12:41:20.953Z,312.00
2017-12-08T12:42:20.945Z,320.00
2017-12-08T12:43:20.937Z,316.00
2017-12-08T12:44:20.930Z,308.00
2017-12-08T12:45:20.923Z,300.00
2017-12-08T12:46:20.916Z,288.00
2017-12-08T12:47:20.909Z,288.00
2017-12-08T12:48:20.903Z,288.00